sensor_id;sensor_type;location;lat;lon;timestamp;temperature;humidity
26270;DHT22;15937;50.612;6.656;2023-03-23T00:03:13;11.80;99.90
26270;DHT22;15937;50.612;6.656;2023-03-23T00:07:14;11.70;99.90
26270;DHT22;15937;50.612;6.656;2023-03-23T00:11:21;11.70;99.90
26270;DHT22;15937;50.612;6.656;2023-03-23T00:15:22;11.70;99.90
26270;DHT22;15937;50.612;6.656;2023-03-23T00:19:25;11.80;99.90
26270;DHT22;15937;50.612;6.656;2023-03-23T00:23:25;11.80;99.90
26270;DHT22;15937;50.612;6.656;2023-03-23T00:27:26;11.80;99.90
26270;DHT22;15937;50.612;6.656;2023-03-23T00:31:27;11.80;99.90
26270;DHT22;15937;50.612;6.656;2023-03-23T00:35:33;11.80;99.90
26270;DHT22;15937;50.612;6.656;2023-03-23T00:39:38;11.80;99.90
26270;DHT22;15937;50.612;6.656;2023-03-23T00:43:39;11.80;99.90
26270;DHT22;15937;50.612;6.656;2023-03-23T00:47:40;11.80;99.90
26270;DHT22;15937;50.612;6.656;2023-03-23T00:51:41;11.80;99.90
26270;DHT22;15937;50.612;6.656;2023-03-23T00:55:43;11.80;99.90
26270;DHT22;15937;50.612;6.656;2023-03-23T00:59:44;11.70;99.90
26270;DHT22;15937;50.612;6.656;2023-03-23T01:03:44;11.70;99.90
26270;DHT22;15937;50.612;6.656;2023-03-23T01:07:47;11.70;99.90
26270;DHT22;15937;50.612;6.656;2023-03-23T01:11:49;11.70;99.90
26270;DHT22;15937;50.612;6.656;2023-03-23T01:15:50;11.70;99.90
26270;DHT22;15937;50.612;6.656;2023-03-23T01:19:51;11.70;99.90
26270;DHT22;15937;50.612;6.656;2023-03-23T01:23:51;11.60;99.90
26270;DHT22;15937;50.612;6.656;2023-03-23T01:27:52;11.60;99.90
26270;DHT22;15937;50.612;6.656;2023-03-23T01:31:52;11.60;99.90
26270;DHT22;15937;50.612;6.656;2023-03-23T01:35:53;11.60;99.90
26270;DHT22;15937;50.612;6.656;2023-03-23T01:39:54;11.60;99.90
26270;DHT22;15937;50.612;6.656;2023-03-23T01:43:55;11.50;99.90
26270;DHT22;15937;50.612;6.656;2023-03-23T01:47:59;11.50;99.90
26270;DHT22;15937;50.612;6.656;2023-03-23T01:52:02;11.50;99.90
26270;DHT22;15937;50.612;6.656;2023-03-23T01:56:05;11.40;99.90
26270;DHT22;15937;50.612;6.656;2023-03-23T02:00:07;11.40;99.90
26270;DHT22;15937;50.612;6.656;2023-03-23T02:04:12;11.30;99.90
26270;DHT22;15937;50.612;6.656;2023-03-23T02:08:14;11.20;99.90
26270;DHT22;15937;50.612;6.656;2023-03-23T02:12:15;11.20;99.90
26270;DHT22;15937;50.612;6.656;2023-03-23T02:25:29;11.20;99.90
26270;DHT22;15937;50.612;6.656;2023-03-23T02:34:15;11.10;99.90
26270;DHT22;15937;50.612;6.656;2023-03-23T02:38:18;11.10;99.90
26270;DHT22;15937;50.612;6.656;2023-03-23T02:42:22;11.10;99.90
26270;DHT22;15937;50.612;6.656;2023-03-23T02:46:24;11.10;99.90
26270;DHT22;15937;50.612;6.656;2023-03-23T02:50:26;11.10;99.90
26270;DHT22;15937;50.612;6.656;2023-03-23T02:54:27;11.10;99.90
26270;DHT22;15937;50.612;6.656;2023-03-23T02:58:29;11.10;99.90
26270;DHT22;15937;50.612;6.656;2023-03-23T03:02:31;11.10;99.90
26270;DHT22;15937;50.612;6.656;2023-03-23T03:06:33;11.10;99.90
26270;DHT22;15937;50.612;6.656;2023-03-23T03:10:39;11.00;99.90
26270;DHT22;15937;50.612;6.656;2023-03-23T03:14:45;10.90;99.90
26270;DHT22;15937;50.612;6.656;2023-03-23T03:18:51;10.90;99.90
26270;DHT22;15937;50.612;6.656;2023-03-23T03:22:53;11.00;99.90
26270;DHT22;15937;50.612;6.656;2023-03-23T03:26:54;10.90;99.90
26270;DHT22;15937;50.612;6.656;2023-03-23T03:30:58;11.00;99.90
26270;DHT22;15937;50.612;6.656;2023-03-23T03:35:25;11.00;99.90
26270;DHT22;15937;50.612;6.656;2023-03-23T03:39:51;11.00;99.90
26270;DHT22;15937;50.612;6.656;2023-03-23T03:44:17;11.00;99.90
26270;DHT22;15937;50.612;6.656;2023-03-23T03:48:43;11.10;99.90
26270;DHT22;15937;50.612;6.656;2023-03-23T03:53:09;11.10;99.90
26270;DHT22;15937;50.612;6.656;2023-03-23T03:57:35;11.00;99.90
26270;DHT22;15937;50.612;6.656;2023-03-23T04:02:01;10.90;99.90
26270;DHT22;15937;50.612;6.656;2023-03-23T04:06:27;10.90;99.90
26270;DHT22;15937;50.612;6.656;2023-03-23T04:10:54;11.00;99.90
26270;DHT22;15937;50.612;6.656;2023-03-23T04:15:19;11.00;99.90
26270;DHT22;15937;50.612;6.656;2023-03-23T04:19:45;11.00;99.90
26270;DHT22;15937;50.612;6.656;2023-03-23T04:24:12;11.00;99.90
26270;DHT22;15937;50.612;6.656;2023-03-23T04:28:38;11.00;99.90
26270;DHT22;15937;50.612;6.656;2023-03-23T04:33:04;11.00;99.90
26270;DHT22;15937;50.612;6.656;2023-03-23T04:37:30;11.10;99.90
26270;DHT22;15937;50.612;6.656;2023-03-23T04:41:56;11.10;99.90
26270;DHT22;15937;50.612;6.656;2023-03-23T04:46:26;11.10;99.90
26270;DHT22;15937;50.612;6.656;2023-03-23T04:50:54;11.10;99.90
26270;DHT22;15937;50.612;6.656;2023-03-23T04:55:20;11.10;99.90
26270;DHT22;15937;50.612;6.656;2023-03-23T04:59:46;11.10;99.90
26270;DHT22;15937;50.612;6.656;2023-03-23T05:04:12;11.10;99.90
26270;DHT22;15937;50.612;6.656;2023-03-23T05:08:41;11.10;99.90
26270;DHT22;15937;50.612;6.656;2023-03-23T05:13:07;11.10;99.90
26270;DHT22;15937;50.612;6.656;2023-03-23T05:17:34;11.10;99.90
26270;DHT22;15937;50.612;6.656;2023-03-23T05:21:59;11.10;99.90
26270;DHT22;15937;50.612;6.656;2023-03-23T05:26:27;11.00;99.90
26270;DHT22;15937;50.612;6.656;2023-03-23T05:30:54;11.00;99.90
26270;DHT22;15937;50.612;6.656;2023-03-23T05:35:21;11.00;99.90
26270;DHT22;15937;50.612;6.656;2023-03-23T05:39:47;10.90;99.90
26270;DHT22;15937;50.612;6.656;2023-03-23T05:44:13;11.00;99.90
26270;DHT22;15937;50.612;6.656;2023-03-23T05:48:39;10.90;99.90
26270;DHT22;15937;50.612;6.656;2023-03-23T05:53:04;11.00;99.90
26270;DHT22;15937;50.612;6.656;2023-03-23T05:57:29;11.00;99.90
26270;DHT22;15937;50.612;6.656;2023-03-23T06:01:56;10.90;99.90
26270;DHT22;15937;50.612;6.656;2023-03-23T06:06:23;10.90;99.90
26270;DHT22;15937;50.612;6.656;2023-03-23T06:10:48;10.90;99.90
26270;DHT22;15937;50.612;6.656;2023-03-23T06:15:15;10.90;99.90
26270;DHT22;15937;50.612;6.656;2023-03-23T06:19:41;11.00;99.90
26270;DHT22;15937;50.612;6.656;2023-03-23T06:24:07;11.00;99.90
26270;DHT22;15937;50.612;6.656;2023-03-23T06:28:33;11.20;99.90
26270;DHT22;15937;50.612;6.656;2023-03-23T06:32:58;11.20;99.90
26270;DHT22;15937;50.612;6.656;2023-03-23T06:37:25;11.30;99.90
26270;DHT22;15937;50.612;6.656;2023-03-23T06:41:51;11.30;99.90
26270;DHT22;15937;50.612;6.656;2023-03-23T06:46:16;11.30;99.90
26270;DHT22;15937;50.612;6.656;2023-03-23T06:50:43;11.40;99.90
26270;DHT22;15937;50.612;6.656;2023-03-23T06:55:10;11.40;99.90
26270;DHT22;15937;50.612;6.656;2023-03-23T06:59:36;11.50;99.90
26270;DHT22;15937;50.612;6.656;2023-03-23T07:04:02;11.50;99.90
26270;DHT22;15937;50.612;6.656;2023-03-23T07:08:03;11.60;99.90
26270;DHT22;15937;50.612;6.656;2023-03-23T07:12:04;11.70;99.90
26270;DHT22;15937;50.612;6.656;2023-03-23T07:16:05;11.70;99.90
26270;DHT22;15937;50.612;6.656;2023-03-23T07:20:06;11.90;99.90
26270;DHT22;15937;50.612;6.656;2023-03-23T07:24:11;11.90;99.90
26270;DHT22;15937;50.612;6.656;2023-03-23T07:28:14;12.00;99.90
26270;DHT22;15937;50.612;6.656;2023-03-23T07:32:15;12.00;99.90
26270;DHT22;15937;50.612;6.656;2023-03-23T07:36:16;12.00;99.90
26270;DHT22;15937;50.612;6.656;2023-03-23T07:40:16;12.00;99.90
26270;DHT22;15937;50.612;6.656;2023-03-23T07:44:18;12.10;99.90
26270;DHT22;15937;50.612;6.656;2023-03-23T07:48:19;12.10;99.90
26270;DHT22;15937;50.612;6.656;2023-03-23T07:52:19;12.20;99.90
26270;DHT22;15937;50.612;6.656;2023-03-23T07:56:20;12.20;99.90
26270;DHT22;15937;50.612;6.656;2023-03-23T08:00:22;12.30;99.90
26270;DHT22;15937;50.612;6.656;2023-03-23T08:04:24;12.30;99.90
26270;DHT22;15937;50.612;6.656;2023-03-23T08:08:25;12.40;99.90
26270;DHT22;15937;50.612;6.656;2023-03-23T08:12:26;12.40;99.90
26270;DHT22;15937;50.612;6.656;2023-03-23T08:16:27;12.50;99.90
26270;DHT22;15937;50.612;6.656;2023-03-23T08:20:28;12.50;99.90
26270;DHT22;15937;50.612;6.656;2023-03-23T08:24:29;12.40;99.90
26270;DHT22;15937;50.612;6.656;2023-03-23T08:28:29;12.50;99.90
26270;DHT22;15937;50.612;6.656;2023-03-23T08:32:30;12.50;99.90
26270;DHT22;15937;50.612;6.656;2023-03-23T08:36:32;12.50;99.90
26270;DHT22;15937;50.612;6.656;2023-03-23T08:40:33;12.60;99.90
26270;DHT22;15937;50.612;6.656;2023-03-23T08:44:34;12.60;99.90
26270;DHT22;15937;50.612;6.656;2023-03-23T08:48:34;12.70;99.90
26270;DHT22;15937;50.612;6.656;2023-03-23T08:52:35;12.80;99.90
26270;DHT22;15937;50.612;6.656;2023-03-23T08:56:36;12.80;99.90
26270;DHT22;15937;50.612;6.656;2023-03-23T09:00:37;12.70;99.90
26270;DHT22;15937;50.612;6.656;2023-03-23T09:04:38;12.70;99.90
26270;DHT22;15937;50.612;6.656;2023-03-23T09:08:41;12.80;99.90
26270;DHT22;15937;50.612;6.656;2023-03-23T09:12:42;12.80;99.90
26270;DHT22;15937;50.612;6.656;2023-03-23T09:16:43;12.90;99.90
26270;DHT22;15937;50.612;6.656;2023-03-23T09:20:43;12.70;99.90
26270;DHT22;15937;50.612;6.656;2023-03-23T09:24:44;12.80;99.90
26270;DHT22;15937;50.612;6.656;2023-03-23T09:28:45;12.80;99.90
26270;DHT22;15937;50.612;6.656;2023-03-23T09:32:46;12.80;99.90
26270;DHT22;15937;50.612;6.656;2023-03-23T09:36:48;12.60;99.90
26270;DHT22;15937;50.612;6.656;2023-03-23T09:40:55;12.90;99.90
26270;DHT22;15937;50.612;6.656;2023-03-23T09:49:15;13.20;99.90
26270;DHT22;15937;50.612;6.656;2023-03-23T09:53:19;13.20;99.90
26270;DHT22;15937;50.612;6.656;2023-03-23T09:57:30;13.30;99.90
26270;DHT22;15937;50.612;6.656;2023-03-23T10:01:36;13.40;99.90
26270;DHT22;15937;50.612;6.656;2023-03-23T10:05:41;13.20;99.90
26270;DHT22;15937;50.612;6.656;2023-03-23T10:09:43;13.30;99.90
26270;DHT22;15937;50.612;6.656;2023-03-23T10:17:54;13.50;99.90
26270;DHT22;15937;50.612;6.656;2023-03-23T10:21:59;13.50;99.90
26270;DHT22;15937;50.612;6.656;2023-03-23T10:26:12;13.50;99.90
26270;DHT22;15937;50.612;6.656;2023-03-23T10:30:22;13.60;99.90
26270;DHT22;15937;50.612;6.656;2023-03-23T10:34:28;13.70;99.90
26270;DHT22;15937;50.612;6.656;2023-03-23T10:39:18;13.80;99.90
26270;DHT22;15937;50.612;6.656;2023-03-23T10:42:52;13.90;99.90
26270;DHT22;15937;50.612;6.656;2023-03-23T10:46:58;13.20;99.90
26270;DHT22;15937;50.612;6.656;2023-03-23T10:51:00;13.70;99.90
26270;DHT22;15937;50.612;6.656;2023-03-23T10:55:07;13.30;99.90
26270;DHT22;15937;50.612;6.656;2023-03-23T11:07:20;13.90;99.90
26270;DHT22;15937;50.612;6.656;2023-03-23T11:11:29;13.60;99.90
26270;DHT22;15937;50.612;6.656;2023-03-23T11:15:34;14.00;99.90
26270;DHT22;15937;50.612;6.656;2023-03-23T11:19:36;13.90;99.90
26270;DHT22;15937;50.612;6.656;2023-03-23T11:23:41;13.70;99.90
26270;DHT22;15937;50.612;6.656;2023-03-23T11:27:42;13.60;99.90
26270;DHT22;15937;50.612;6.656;2023-03-23T11:31:45;13.70;99.90
26270;DHT22;15937;50.612;6.656;2023-03-23T11:35:49;14.20;99.90
26270;DHT22;15937;50.612;6.656;2023-03-23T11:40:10;14.30;99.90
26270;DHT22;15937;50.612;6.656;2023-03-23T11:44:15;14.50;99.90
26270;DHT22;15937;50.612;6.656;2023-03-23T11:52:39;14.50;99.90
26270;DHT22;15937;50.612;6.656;2023-03-23T11:56:42;14.60;99.90
26270;DHT22;15937;50.612;6.656;2023-03-23T12:01:05;14.50;99.90
26270;DHT22;15937;50.612;6.656;2023-03-23T12:42:54;14.50;99.90
26270;DHT22;15937;50.612;6.656;2023-03-23T12:51:11;14.80;99.90
26270;DHT22;15937;50.612;6.656;2023-03-23T12:55:21;14.80;99.90
26270;DHT22;15937;50.612;6.656;2023-03-23T12:59:36;15.30;99.90
26270;DHT22;15937;50.612;6.656;2023-03-23T13:03:42;14.80;99.90
26270;DHT22;15937;50.612;6.656;2023-03-23T13:07:47;15.10;99.90
26270;DHT22;15937;50.612;6.656;2023-03-23T13:11:49;15.50;99.90
26270;DHT22;15937;50.612;6.656;2023-03-23T13:24:32;15.60;99.90
26270;DHT22;15937;50.612;6.656;2023-03-23T13:28:45;15.90;99.90
26270;DHT22;15937;50.612;6.656;2023-03-23T13:32:46;16.10;99.90
26270;DHT22;15937;50.612;6.656;2023-03-23T13:36:58;16.20;99.90
26270;DHT22;15937;50.612;6.656;2023-03-23T13:41:05;16.50;99.90
26270;DHT22;15937;50.612;6.656;2023-03-23T13:45:20;15.90;99.90
26270;DHT22;15937;50.612;6.656;2023-03-23T13:49:22;15.80;99.90
26270;DHT22;15937;50.612;6.656;2023-03-23T14:01:38;15.30;99.90
26270;DHT22;15937;50.612;6.656;2023-03-23T14:05:43;15.80;99.90
26270;DHT22;15937;50.612;6.656;2023-03-23T14:09:45;15.50;99.90
26270;DHT22;15937;50.612;6.656;2023-03-23T14:14:06;15.20;99.90
26270;DHT22;15937;50.612;6.656;2023-03-23T14:18:11;15.40;99.90
26270;DHT22;15937;50.612;6.656;2023-03-23T14:22:17;15.20;99.90
26270;DHT22;15937;50.612;6.656;2023-03-23T14:26:19;15.00;99.90
26270;DHT22;15937;50.612;6.656;2023-03-23T14:30:21;14.90;99.90
26270;DHT22;15937;50.612;6.656;2023-03-23T14:34:23;14.70;99.90
26270;DHT22;15937;50.612;6.656;2023-03-23T14:38:25;15.10;99.90
26270;DHT22;15937;50.612;6.656;2023-03-23T14:42:33;15.50;99.90
26270;DHT22;15937;50.612;6.656;2023-03-23T14:46:34;15.50;99.90
26270;DHT22;15937;50.612;6.656;2023-03-23T14:50:37;15.10;99.90
26270;DHT22;15937;50.612;6.656;2023-03-23T14:54:38;15.30;99.90
26270;DHT22;15937;50.612;6.656;2023-03-23T14:58:45;15.60;99.90
26270;DHT22;15937;50.612;6.656;2023-03-23T15:02:47;15.60;99.90
26270;DHT22;15937;50.612;6.656;2023-03-23T15:06:51;15.20;99.90
26270;DHT22;15937;50.612;6.656;2023-03-23T15:10:53;15.40;99.90
26270;DHT22;15937;50.612;6.656;2023-03-23T15:14:56;15.40;99.90
26270;DHT22;15937;50.612;6.656;2023-03-23T15:18:58;15.40;99.90
26270;DHT22;15937;50.612;6.656;2023-03-23T15:23:06;15.40;99.90
26270;DHT22;15937;50.612;6.656;2023-03-23T15:27:12;15.40;99.90
26270;DHT22;15937;50.612;6.656;2023-03-23T15:31:13;15.40;99.90
26270;DHT22;15937;50.612;6.656;2023-03-23T15:35:15;15.60;99.90
26270;DHT22;15937;50.612;6.656;2023-03-23T15:39:16;15.40;99.90
26270;DHT22;15937;50.612;6.656;2023-03-23T15:47:18;15.40;99.90
26270;DHT22;15937;50.612;6.656;2023-03-23T15:51:21;15.30;99.90
26270;DHT22;15937;50.612;6.656;2023-03-23T15:55:29;15.30;99.90
26270;DHT22;15937;50.612;6.656;2023-03-23T15:59:30;15.10;99.90
26270;DHT22;15937;50.612;6.656;2023-03-23T16:03:39;15.00;99.90
26270;DHT22;15937;50.612;6.656;2023-03-23T16:07:41;15.20;99.90
26270;DHT22;15937;50.612;6.656;2023-03-23T16:11:43;15.40;99.90
26270;DHT22;15937;50.612;6.656;2023-03-23T16:15:45;15.20;99.90
26270;DHT22;15937;50.612;6.656;2023-03-23T16:19:47;15.20;99.90
26270;DHT22;15937;50.612;6.656;2023-03-23T16:23:48;15.50;99.90
26270;DHT22;15937;50.612;6.656;2023-03-23T16:27:50;15.30;99.90
26270;DHT22;15937;50.612;6.656;2023-03-23T16:31:53;15.20;99.90
26270;DHT22;15937;50.612;6.656;2023-03-23T16:35:55;14.90;99.90
26270;DHT22;15937;50.612;6.656;2023-03-23T16:39:58;15.00;99.90
26270;DHT22;15937;50.612;6.656;2023-03-23T16:44:00;15.00;99.90
26270;DHT22;15937;50.612;6.656;2023-03-23T16:48:01;14.90;99.90
26270;DHT22;15937;50.612;6.656;2023-03-23T16:52:03;14.90;99.90
26270;DHT22;15937;50.612;6.656;2023-03-23T16:56:05;14.70;99.90
26270;DHT22;15937;50.612;6.656;2023-03-23T17:00:08;14.70;99.90
26270;DHT22;15937;50.612;6.656;2023-03-23T17:04:10;14.50;99.90
26270;DHT22;15937;50.612;6.656;2023-03-23T17:08:12;14.60;99.90
26270;DHT22;15937;50.612;6.656;2023-03-23T17:12:14;14.50;99.90
26270;DHT22;15937;50.612;6.656;2023-03-23T17:16:16;14.40;99.90
26270;DHT22;15937;50.612;6.656;2023-03-23T17:20:18;14.20;99.90
26270;DHT22;15937;50.612;6.656;2023-03-23T17:24:19;14.20;99.90
26270;DHT22;15937;50.612;6.656;2023-03-23T17:28:21;14.10;99.90
26270;DHT22;15937;50.612;6.656;2023-03-23T17:32:23;14.10;99.90
26270;DHT22;15937;50.612;6.656;2023-03-23T17:36:25;14.00;99.90
26270;DHT22;15937;50.612;6.656;2023-03-23T17:40:27;14.00;99.90
26270;DHT22;15937;50.612;6.656;2023-03-23T17:44:29;13.90;99.90
26270;DHT22;15937;50.612;6.656;2023-03-23T17:48:31;13.80;99.90
26270;DHT22;15937;50.612;6.656;2023-03-23T17:52:32;13.70;99.90
26270;DHT22;15937;50.612;6.656;2023-03-23T17:56:34;13.60;99.90
26270;DHT22;15937;50.612;6.656;2023-03-23T18:00:36;13.80;99.90
26270;DHT22;15937;50.612;6.656;2023-03-23T18:04:38;13.60;99.90
26270;DHT22;15937;50.612;6.656;2023-03-23T18:08:40;13.70;99.90
26270;DHT22;15937;50.612;6.656;2023-03-23T18:12:42;13.50;99.90
26270;DHT22;15937;50.612;6.656;2023-03-23T18:16:44;13.50;99.90
26270;DHT22;15937;50.612;6.656;2023-03-23T18:20:45;13.50;99.90
26270;DHT22;15937;50.612;6.656;2023-03-23T18:24:47;13.50;99.90
26270;DHT22;15937;50.612;6.656;2023-03-23T18:28:49;13.50;99.90
26270;DHT22;15937;50.612;6.656;2023-03-23T18:32:51;13.50;99.90
26270;DHT22;15937;50.612;6.656;2023-03-23T18:36:53;13.40;99.90
26270;DHT22;15937;50.612;6.656;2023-03-23T18:40:54;13.40;99.90
26270;DHT22;15937;50.612;6.656;2023-03-23T18:44:56;13.40;99.90
26270;DHT22;15937;50.612;6.656;2023-03-23T18:49:00;13.40;99.90
26270;DHT22;15937;50.612;6.656;2023-03-23T18:53:03;13.40;99.90
26270;DHT22;15937;50.612;6.656;2023-03-23T18:57:05;13.40;99.90
26270;DHT22;15937;50.612;6.656;2023-03-23T19:01:08;13.30;99.90
26270;DHT22;15937;50.612;6.656;2023-03-23T19:05:10;13.20;99.90
26270;DHT22;15937;50.612;6.656;2023-03-23T19:09:12;13.10;99.90
26270;DHT22;15937;50.612;6.656;2023-03-23T19:13:14;13.00;99.90
26270;DHT22;15937;50.612;6.656;2023-03-23T19:17:18;13.00;99.90
26270;DHT22;15937;50.612;6.656;2023-03-23T19:21:19;12.90;99.90
26270;DHT22;15937;50.612;6.656;2023-03-23T19:25:26;12.90;99.90
26270;DHT22;15937;50.612;6.656;2023-03-23T19:29:28;12.80;99.90
26270;DHT22;15937;50.612;6.656;2023-03-23T19:33:29;12.90;99.90
26270;DHT22;15937;50.612;6.656;2023-03-23T19:37:31;12.80;99.90
26270;DHT22;15937;50.612;6.656;2023-03-23T19:41:35;12.70;99.90
26270;DHT22;15937;50.612;6.656;2023-03-23T19:45:37;12.70;99.90
26270;DHT22;15937;50.612;6.656;2023-03-23T19:49:39;12.60;99.90
26270;DHT22;15937;50.612;6.656;2023-03-23T19:53:41;12.60;99.90
26270;DHT22;15937;50.612;6.656;2023-03-23T19:57:43;12.50;99.90
26270;DHT22;15937;50.612;6.656;2023-03-23T20:01:45;12.60;99.90
26270;DHT22;15937;50.612;6.656;2023-03-23T20:05:47;12.60;99.90
26270;DHT22;15937;50.612;6.656;2023-03-23T20:09:50;12.50;99.90
26270;DHT22;15937;50.612;6.656;2023-03-23T20:13:51;12.60;99.90
26270;DHT22;15937;50.612;6.656;2023-03-23T20:17:53;12.60;99.90
26270;DHT22;15937;50.612;6.656;2023-03-23T20:21:58;12.70;99.90
26270;DHT22;15937;50.612;6.656;2023-03-23T20:26:01;12.60;99.90
26270;DHT22;15937;50.612;6.656;2023-03-23T20:30:05;12.70;99.90
26270;DHT22;15937;50.612;6.656;2023-03-23T20:34:09;12.70;99.90
26270;DHT22;15937;50.612;6.656;2023-03-23T20:38:11;12.70;99.90
26270;DHT22;15937;50.612;6.656;2023-03-23T20:42:13;12.70;99.90
26270;DHT22;15937;50.612;6.656;2023-03-23T20:46:14;12.70;99.90
26270;DHT22;15937;50.612;6.656;2023-03-23T20:50:16;12.80;99.90
26270;DHT22;15937;50.612;6.656;2023-03-23T20:54:19;12.80;99.90
26270;DHT22;15937;50.612;6.656;2023-03-23T20:58:23;12.80;99.90
26270;DHT22;15937;50.612;6.656;2023-03-23T21:02:25;12.90;99.90
26270;DHT22;15937;50.612;6.656;2023-03-23T21:06:30;12.80;99.90
26270;DHT22;15937;50.612;6.656;2023-03-23T21:10:33;12.80;99.90
26270;DHT22;15937;50.612;6.656;2023-03-23T21:14:35;12.80;99.90
26270;DHT22;15937;50.612;6.656;2023-03-23T21:18:37;12.80;99.90
26270;DHT22;15937;50.612;6.656;2023-03-23T21:22:39;12.70;99.90
26270;DHT22;15937;50.612;6.656;2023-03-23T21:26:41;12.70;99.90
26270;DHT22;15937;50.612;6.656;2023-03-23T21:30:43;12.70;99.90
26270;DHT22;15937;50.612;6.656;2023-03-23T21:34:46;12.70;99.90
26270;DHT22;15937;50.612;6.656;2023-03-23T21:38:48;12.70;99.90
26270;DHT22;15937;50.612;6.656;2023-03-23T21:42:50;12.60;99.90
26270;DHT22;15937;50.612;6.656;2023-03-23T21:46:53;12.60;99.90
26270;DHT22;15937;50.612;6.656;2023-03-23T21:50:55;12.60;99.90
26270;DHT22;15937;50.612;6.656;2023-03-23T21:54:57;12.50;99.90
26270;DHT22;15937;50.612;6.656;2023-03-23T21:59:03;12.50;99.90
26270;DHT22;15937;50.612;6.656;2023-03-23T22:03:05;12.40;99.90
26270;DHT22;15937;50.612;6.656;2023-03-23T22:07:07;12.40;99.90
26270;DHT22;15937;50.612;6.656;2023-03-23T22:11:11;12.30;99.90
26270;DHT22;15937;50.612;6.656;2023-03-23T22:15:13;12.30;99.90
26270;DHT22;15937;50.612;6.656;2023-03-23T22:19:15;12.30;99.90
26270;DHT22;15937;50.612;6.656;2023-03-23T22:23:17;12.20;99.90
26270;DHT22;15937;50.612;6.656;2023-03-23T22:27:19;12.20;99.90
26270;DHT22;15937;50.612;6.656;2023-03-23T22:31:22;12.20;99.90
26270;DHT22;15937;50.612;6.656;2023-03-23T22:35:24;12.20;99.90
26270;DHT22;15937;50.612;6.656;2023-03-23T22:39:26;12.10;99.90
26270;DHT22;15937;50.612;6.656;2023-03-23T22:43:29;12.10;99.90
26270;DHT22;15937;50.612;6.656;2023-03-23T22:47:30;12.10;99.90
26270;DHT22;15937;50.612;6.656;2023-03-23T22:51:32;12.10;99.90
26270;DHT22;15937;50.612;6.656;2023-03-23T22:55:34;12.10;99.90
26270;DHT22;15937;50.612;6.656;2023-03-23T22:59:36;12.10;99.90
26270;DHT22;15937;50.612;6.656;2023-03-23T23:03:37;12.10;99.90
26270;DHT22;15937;50.612;6.656;2023-03-23T23:07:40;12.00;99.90
26270;DHT22;15937;50.612;6.656;2023-03-23T23:11:42;12.10;99.90
26270;DHT22;15937;50.612;6.656;2023-03-23T23:15:46;12.10;99.90
26270;DHT22;15937;50.612;6.656;2023-03-23T23:19:47;12.10;99.90
26270;DHT22;15937;50.612;6.656;2023-03-23T23:23:49;12.10;99.90
26270;DHT22;15937;50.612;6.656;2023-03-23T23:27:52;12.10;99.90
26270;DHT22;15937;50.612;6.656;2023-03-23T23:31:54;12.10;99.90
26270;DHT22;15937;50.612;6.656;2023-03-23T23:35:55;12.10;99.90
26270;DHT22;15937;50.612;6.656;2023-03-23T23:39:57;12.10;99.90
26270;DHT22;15937;50.612;6.656;2023-03-23T23:43:59;12.10;99.90
26270;DHT22;15937;50.612;6.656;2023-03-23T23:48:01;12.20;99.90
26270;DHT22;15937;50.612;6.656;2023-03-23T23:52:03;12.20;99.90
26270;DHT22;15937;50.612;6.656;2023-03-23T23:56:07;12.20;99.90
